sensor_id;sensor_type;location;lat;lon;timestamp;pressure;altitude;pressure_sealevel;temperature;humidity
34124;BME280;13153;52.316;21.166;2023-04-06T00:01:40;100984.25;;;6.79;42.24
34124;BME280;13153;52.316;21.166;2023-04-06T00:04:06;100978.19;;;6.80;41.99
34124;BME280;13153;52.316;21.166;2023-04-06T00:06:32;100980.72;;;6.79;41.64
34124;BME280;13153;52.316;21.166;2023-04-06T00:08:59;100980.72;;;6.79;41.48
34124;BME280;13153;52.316;21.166;2023-04-06T00:11:26;100974.59;;;6.78;41.83
34124;BME280;13153;52.316;21.166;2023-04-06T00:13:52;100974.53;;;6.77;41.75
34124;BME280;13153;52.316;21.166;2023-04-06T00:16:19;100970.03;;;6.74;41.10
34124;BME280;13153;52.316;21.166;2023-04-06T00:18:45;100963.91;;;6.74;41.50
34124;BME280;13153;52.316;21.166;2023-04-06T00:21:12;100968.97;;;6.71;41.55
34124;BME280;13153;52.316;21.166;2023-04-06T00:23:39;100970.63;;;6.69;41.54
34124;BME280;13153;52.316;21.166;2023-04-06T00:26:05;100970.38;;;6.64;41.76
34124;BME280;13153;52.316;21.166;2023-04-06T00:28:30;100968.81;;;6.68;41.66
34124;BME280;13153;52.316;21.166;2023-04-06T00:30:56;100965.38;;;6.69;41.16
34124;BME280;13153;52.316;21.166;2023-04-06T00:33:23;100956.78;;;6.71;41.45
34124;BME280;13153;52.316;21.166;2023-04-06T00:35:49;100950.50;;;6.68;41.76
34124;BME280;13153;52.316;21.166;2023-04-06T00:38:15;100952.47;;;6.72;41.65
34124;BME280;13153;52.316;21.166;2023-04-06T00:40:42;100951.66;;;6.73;41.89
34124;BME280;13153;52.316;21.166;2023-04-06T00:43:11;100951.72;;;6.74;41.59
34124;BME280;13153;52.316;21.166;2023-04-06T00:45:39;100949.09;;;6.74;41.31
34124;BME280;13153;52.316;21.166;2023-04-06T00:48:06;100950.91;;;6.75;41.67
34124;BME280;13153;52.316;21.166;2023-04-06T00:50:32;100950.00;;;6.75;41.63
34124;BME280;13153;52.316;21.166;2023-04-06T00:52:59;100944.84;;;6.76;41.80
34124;BME280;13153;52.316;21.166;2023-04-06T00:55:27;100942.41;;;6.79;41.54
34124;BME280;13153;52.316;21.166;2023-04-06T00:57:54;100945.09;;;6.81;42.22
34124;BME280;13153;52.316;21.166;2023-04-06T01:00:20;100943.44;;;6.83;42.14
34124;BME280;13153;52.316;21.166;2023-04-06T01:02:46;100940.84;;;6.83;42.49
34124;BME280;13153;52.316;21.166;2023-04-06T01:05:13;100941.81;;;6.85;43.08
34124;BME280;13153;52.316;21.166;2023-04-06T01:07:39;100938.38;;;6.86;42.94
34124;BME280;13153;52.316;21.166;2023-04-06T01:10:06;100941.97;;;6.88;42.77
34124;BME280;13153;52.316;21.166;2023-04-06T01:12:31;100935.75;;;6.86;42.98
34124;BME280;13153;52.316;21.166;2023-04-06T01:14:58;100934.84;;;6.85;42.60
34124;BME280;13153;52.316;21.166;2023-04-06T01:17:23;100931.41;;;6.86;42.84
34124;BME280;13153;52.316;21.166;2023-04-06T01:19:49;100944.50;;;6.86;43.20
34124;BME280;13153;52.316;21.166;2023-04-06T01:22:17;100930.59;;;6.87;43.16
34124;BME280;13153;52.316;21.166;2023-04-06T01:24:44;100931.34;;;6.85;43.15
34124;BME280;13153;52.316;21.166;2023-04-06T01:27:10;100931.34;;;6.85;43.01
34124;BME280;13153;52.316;21.166;2023-04-06T01:29:36;100930.44;;;6.84;43.38
34124;BME280;13153;52.316;21.166;2023-04-06T01:32:02;100925.13;;;6.83;43.71
34124;BME280;13153;52.316;21.166;2023-04-06T01:34:28;100912.88;;;6.82;43.74
34124;BME280;13153;52.316;21.166;2023-04-06T01:36:54;100918.03;;;6.80;43.19
34124;BME280;13153;52.316;21.166;2023-04-06T01:39:20;100915.34;;;6.79;43.67
34124;BME280;13153;52.316;21.166;2023-04-06T01:41:46;100912.72;;;6.79;43.64
34124;BME280;13153;52.316;21.166;2023-04-06T01:44:18;100912.66;;;6.77;43.82
34124;BME280;13153;52.316;21.166;2023-04-06T01:46:44;100914.22;;;6.74;43.52
34124;BME280;13153;52.316;21.166;2023-04-06T01:49:11;100908.09;;;6.73;43.69
34124;BME280;13153;52.316;21.166;2023-04-06T01:51:37;100907.13;;;6.71;43.67
34124;BME280;13153;52.316;21.166;2023-04-06T01:54:04;100911.44;;;6.71;43.47
34124;BME280;13153;52.316;21.166;2023-04-06T01:56:29;100914.97;;;6.71;43.35
34124;BME280;13153;52.316;21.166;2023-04-06T01:58:55;100913.31;;;6.73;43.65
34124;BME280;13153;52.316;21.166;2023-04-06T02:01:21;100905.47;;;6.73;43.57
34124;BME280;13153;52.316;21.166;2023-04-06T02:03:47;100912.41;;;6.73;43.54
34124;BME280;13153;52.316;21.166;2023-04-06T02:06:13;100908.09;;;6.73;43.46
34124;BME280;13153;52.316;21.166;2023-04-06T02:08:39;100909.72;;;6.71;43.48
34124;BME280;13153;52.316;21.166;2023-04-06T02:11:05;100903.53;;;6.69;43.73
34124;BME280;13153;52.316;21.166;2023-04-06T02:13:31;100904.34;;;6.68;43.71
34124;BME280;13153;52.316;21.166;2023-04-06T02:15:57;100899.94;;;6.67;43.91
34124;BME280;13153;52.316;21.166;2023-04-06T02:18:23;100897.16;;;6.64;43.84
34124;BME280;13153;52.316;21.166;2023-04-06T02:20:48;100904.13;;;6.63;44.08
34124;BME280;13153;52.316;21.166;2023-04-06T02:23:14;100890.06;;;6.61;44.38
34124;BME280;13153;52.316;21.166;2023-04-06T02:25:40;100889.97;;;6.60;44.16
34124;BME280;13153;52.316;21.166;2023-04-06T02:28:06;100888.13;;;6.57;43.91
34124;BME280;13153;52.316;21.166;2023-04-06T02:30:32;100889.75;;;6.55;44.33
34124;BME280;13153;52.316;21.166;2023-04-06T02:33:00;100887.06;;;6.54;44.25
34124;BME280;13153;52.316;21.166;2023-04-06T02:35:28;100885.25;;;6.53;44.29
34124;BME280;13153;52.316;21.166;2023-04-06T02:37:54;100883.31;;;6.49;44.74
34124;BME280;13153;52.316;21.166;2023-04-06T02:40:20;100884.13;;;6.48;44.76
34124;BME280;13153;52.316;21.166;2023-04-06T02:42:46;100879.66;;;6.45;45.13
34124;BME280;13153;52.316;21.166;2023-04-06T02:45:12;100881.22;;;6.42;45.04
34124;BME280;13153;52.316;21.166;2023-04-06T02:47:38;100881.94;;;6.39;45.10
34124;BME280;13153;52.316;21.166;2023-04-06T02:50:04;100884.38;;;6.35;45.43
34124;BME280;13153;52.316;21.166;2023-04-06T02:52:30;100879.88;;;6.32;45.36
34124;BME280;13153;52.316;21.166;2023-04-06T02:54:56;100882.41;;;6.31;45.57
34124;BME280;13153;52.316;21.166;2023-04-06T02:57:21;100883.97;;;6.27;45.42
34124;BME280;13153;52.316;21.166;2023-04-06T02:59:47;100879.41;;;6.23;45.75
34124;BME280;13153;52.316;21.166;2023-04-06T03:02:13;100884.47;;;6.20;45.90
34124;BME280;13153;52.316;21.166;2023-04-06T03:04:39;100886.91;;;6.17;46.04
34124;BME280;13153;52.316;21.166;2023-04-06T03:07:05;100879.91;;;6.16;46.11
34124;BME280;13153;52.316;21.166;2023-04-06T03:09:30;100883.25;;;6.13;46.37
34124;BME280;13153;52.316;21.166;2023-04-06T03:11:56;100880.56;;;6.12;46.34
34124;BME280;13153;52.316;21.166;2023-04-06T03:14:22;100880.41;;;6.09;46.12
34124;BME280;13153;52.316;21.166;2023-04-06T03:16:48;100889.03;;;6.08;46.47
34124;BME280;13153;52.316;21.166;2023-04-06T03:19:14;100881.94;;;6.05;46.72
34124;BME280;13153;52.316;21.166;2023-04-06T03:21:41;100884.47;;;6.04;46.60
34124;BME280;13153;52.316;21.166;2023-04-06T03:24:07;100893.22;;;6.04;46.26
34124;BME280;13153;52.316;21.166;2023-04-06T03:26:33;100890.53;;;6.03;46.84
34124;BME280;13153;52.316;21.166;2023-04-06T03:28:59;100888.72;;;6.02;46.82
34124;BME280;13153;52.316;21.166;2023-04-06T03:31:26;100886.19;;;6.03;46.83
34124;BME280;13153;52.316;21.166;2023-04-06T03:33:52;100889.63;;;6.02;47.19
34124;BME280;13153;52.316;21.166;2023-04-06T03:36:18;100890.53;;;6.03;46.90
34124;BME280;13153;52.316;21.166;2023-04-06T03:38:44;100887.91;;;6.03;46.99
34124;BME280;13153;52.316;21.166;2023-04-06T03:41:09;100879.25;;;6.04;46.98
34124;BME280;13153;52.316;21.166;2023-04-06T03:43:36;100883.66;;;6.05;47.13
34124;BME280;13153;52.316;21.166;2023-04-06T03:46:01;100885.47;;;6.06;47.21
34124;BME280;13153;52.316;21.166;2023-04-06T03:48:27;100885.47;;;6.06;47.27
34124;BME280;13153;52.316;21.166;2023-04-06T03:50:53;100889.03;;;6.08;46.95
34124;BME280;13153;52.316;21.166;2023-04-06T03:53:18;100889.03;;;6.08;47.31
34124;BME280;13153;52.316;21.166;2023-04-06T03:55:44;100885.63;;;6.09;46.94
34124;BME280;13153;52.316;21.166;2023-04-06T03:58:10;100883.00;;;6.09;46.97
34124;BME280;13153;52.316;21.166;2023-04-06T04:00:36;100883.81;;;6.08;46.83
34124;BME280;13153;52.316;21.166;2023-04-06T04:03:02;100884.63;;;6.07;46.98
34124;BME280;13153;52.316;21.166;2023-04-06T04:05:28;100889.94;;;6.08;47.02
34124;BME280;13153;52.316;21.166;2023-04-06T04:07:54;100889.13;;;6.09;47.04
34124;BME280;13153;52.316;21.166;2023-04-06T04:10:20;100890.94;;;6.10;46.96
34124;BME280;13153;52.316;21.166;2023-04-06T04:12:46;100884.88;;;6.11;46.81
34124;BME280;13153;52.316;21.166;2023-04-06T04:15:12;100887.56;;;6.13;46.92
34124;BME280;13153;52.316;21.166;2023-04-06T04:17:38;100883.31;;;6.15;46.99
34124;BME280;13153;52.316;21.166;2023-04-06T04:20:04;100881.63;;;6.15;47.07
34124;BME280;13153;52.316;21.166;2023-04-06T04:22:30;100876.47;;;6.17;47.04
34124;BME280;13153;52.316;21.166;2023-04-06T04:24:56;100875.66;;;6.18;47.89
34124;BME280;13153;52.316;21.166;2023-04-06T04:27:21;100874.84;;;6.19;47.02
34124;BME280;13153;52.316;21.166;2023-04-06T04:29:47;100875.72;;;6.19;47.00
34124;BME280;13153;52.316;21.166;2023-04-06T04:32:13;100875.81;;;6.21;46.60
34124;BME280;13153;52.316;21.166;2023-04-06T04:34:40;100880.22;;;6.22;46.82
34124;BME280;13153;52.316;21.166;2023-04-06T04:37:06;100878.59;;;6.24;46.70
34124;BME280;13153;52.316;21.166;2023-04-06T04:39:32;100872.63;;;6.26;46.86
34124;BME280;13153;52.316;21.166;2023-04-06T04:41:58;100869.50;;;6.34;46.90
34124;BME280;13153;52.316;21.166;2023-04-06T04:44:24;100865.44;;;6.40;46.30
34124;BME280;13153;52.316;21.166;2023-04-06T04:46:49;100864.78;;;6.44;46.46
34124;BME280;13153;52.316;21.166;2023-04-06T04:49:15;100862.00;;;6.41;46.18
34124;BME280;13153;52.316;21.166;2023-04-06T04:51:41;100869.84;;;6.41;46.13
34124;BME280;13153;52.316;21.166;2023-04-06T04:54:07;100865.44;;;6.40;46.18
34124;BME280;13153;52.316;21.166;2023-04-06T04:56:33;100858.59;;;6.42;46.12
34124;BME280;13153;52.316;21.166;2023-04-06T04:58:58;100866.56;;;6.45;46.20
34124;BME280;13153;52.316;21.166;2023-04-06T05:01:24;100857.91;;;6.46;45.88
34124;BME280;13153;52.316;21.166;2023-04-06T05:03:50;100854.63;;;6.50;45.91
34124;BME280;13153;52.316;21.166;2023-04-06T05:06:16;100861.06;;;6.57;46.25
34124;BME280;13153;52.316;21.166;2023-04-06T05:08:43;100862.94;;;6.59;45.52
34124;BME280;13153;52.316;21.166;2023-04-06T05:11:09;100859.66;;;6.63;45.47
34124;BME280;13153;52.316;21.166;2023-04-06T05:13:35;100869.69;;;6.72;45.73
34124;BME280;13153;52.316;21.166;2023-04-06T05:16:01;100866.31;;;6.75;45.42
34124;BME280;13153;52.316;21.166;2023-04-06T05:18:27;100865.72;;;6.80;45.57
34124;BME280;13153;52.316;21.166;2023-04-06T05:20:53;100860.13;;;6.90;45.35
34124;BME280;13153;52.316;21.166;2023-04-06T05:23:19;100866.00;;;7.04;45.04
34124;BME280;13153;52.316;21.166;2023-04-06T05:25:44;100864.94;;;7.18;44.52
34124;BME280;13153;52.316;21.166;2023-04-06T05:28:10;100860.38;;;7.32;44.24
34124;BME280;13153;52.316;21.166;2023-04-06T05:30:39;100863.63;;;7.46;44.25
34124;BME280;13153;52.316;21.166;2023-04-06T05:33:06;100861.53;;;7.58;43.67
34124;BME280;13153;52.316;21.166;2023-04-06T05:35:31;100857.41;;;7.63;43.39
34124;BME280;13153;52.316;21.166;2023-04-06T05:37:57;100857.00;;;7.73;43.05
34124;BME280;13153;52.316;21.166;2023-04-06T05:40:23;100854.25;;;7.89;43.58
34124;BME280;13153;52.316;21.166;2023-04-06T05:42:49;100844.47;;;8.05;43.01
34124;BME280;13153;52.316;21.166;2023-04-06T05:45:18;100858.75;;;8.13;42.09
34124;BME280;13153;52.316;21.166;2023-04-06T05:47:44;100852.69;;;8.14;42.02
34124;BME280;13153;52.316;21.166;2023-04-06T05:50:12;100850.22;;;8.17;41.55
34124;BME280;13153;52.316;21.166;2023-04-06T05:52:38;100851.63;;;8.29;42.05
34124;BME280;13153;52.316;21.166;2023-04-06T05:55:04;100851.03;;;8.35;41.50
34124;BME280;13153;52.316;21.166;2023-04-06T05:57:30;100838.19;;;8.41;41.80
34124;BME280;13153;52.316;21.166;2023-04-06T05:59:56;100844.25;;;8.40;41.17
34124;BME280;13153;52.316;21.166;2023-04-06T06:02:22;100841.44;;;8.36;41.09
34124;BME280;13153;52.316;21.166;2023-04-06T06:04:48;100849.09;;;8.31;42.11
34124;BME280;13153;52.316;21.166;2023-04-06T06:07:14;100840.34;;;8.11;41.26
34124;BME280;13153;52.316;21.166;2023-04-06T06:09:41;100839.72;;;7.96;42.09
34124;BME280;13153;52.316;21.166;2023-04-06T06:12:06;100852.19;;;7.82;42.51
34124;BME280;13153;52.316;21.166;2023-04-06T06:14:33;100845.72;;;7.74;42.75
34124;BME280;13153;52.316;21.166;2023-04-06T06:16:58;100834.69;;;7.62;43.23
34124;BME280;13153;52.316;21.166;2023-04-06T06:19:26;100836.88;;;7.72;43.11
34124;BME280;13153;52.316;21.166;2023-04-06T06:21:51;100836.41;;;7.81;42.90
34124;BME280;13153;52.316;21.166;2023-04-06T06:24:17;100838.41;;;7.86;42.81
34124;BME280;13153;52.316;21.166;2023-04-06T06:26:43;100842.41;;;7.78;43.27
34124;BME280;13153;52.316;21.166;2023-04-06T06:29:09;100835.09;;;7.52;43.00
34124;BME280;13153;52.316;21.166;2023-04-06T06:31:35;100844.66;;;7.51;43.26
34124;BME280;13153;52.316;21.166;2023-04-06T06:34:01;100838.97;;;7.41;43.72
34124;BME280;13153;52.316;21.166;2023-04-06T06:36:29;100841.72;;;7.44;44.02
34124;BME280;13153;52.316;21.166;2023-04-06T06:38:56;100839.41;;;7.51;43.75
34124;BME280;13153;52.316;21.166;2023-04-06T06:41:22;100836.41;;;7.61;44.43
34124;BME280;13153;52.316;21.166;2023-04-06T06:43:48;100826.13;;;7.66;43.43
34124;BME280;13153;52.316;21.166;2023-04-06T06:46:13;100837.28;;;7.62;44.38
34124;BME280;13153;52.316;21.166;2023-04-06T06:48:39;100830.13;;;7.58;44.64
34124;BME280;13153;52.316;21.166;2023-04-06T06:51:05;100831.38;;;7.47;45.24
34124;BME280;13153;52.316;21.166;2023-04-06T06:53:31;100826.63;;;7.77;44.92
34124;BME280;13153;52.316;21.166;2023-04-06T06:55:57;100836.72;;;8.08;44.33
34124;BME280;13153;52.316;21.166;2023-04-06T06:58:23;100828.81;;;8.27;43.52
34124;BME280;13153;52.316;21.166;2023-04-06T07:00:49;100825.59;;;8.53;43.13
34124;BME280;13153;52.316;21.166;2023-04-06T07:03:15;100824.72;;;8.75;42.48
34124;BME280;13153;52.316;21.166;2023-04-06T07:05:48;100822.97;;;8.97;42.44
34124;BME280;13153;52.316;21.166;2023-04-06T07:08:19;100824.16;;;9.05;42.10
34124;BME280;13153;52.316;21.166;2023-04-06T07:10:45;100829.00;;;8.73;41.87
34124;BME280;13153;52.316;21.166;2023-04-06T07:13:11;100822.28;;;8.57;42.79
34124;BME280;13153;52.316;21.166;2023-04-06T07:15:38;100822.16;;;8.54;42.21
34124;BME280;13153;52.316;21.166;2023-04-06T07:18:03;100817.97;;;8.39;43.69
34124;BME280;13153;52.316;21.166;2023-04-06T07:20:29;100816.47;;;8.04;43.54
34124;BME280;13153;52.316;21.166;2023-04-06T07:22:55;100821.25;;;8.14;43.83
34124;BME280;13153;52.316;21.166;2023-04-06T07:25:20;100819.28;;;8.29;44.00
34124;BME280;13153;52.316;21.166;2023-04-06T07:27:46;100821.31;;;8.15;44.02
34124;BME280;13153;52.316;21.166;2023-04-06T07:30:13;100820.28;;;7.91;44.34
34124;BME280;13153;52.316;21.166;2023-04-06T07:32:39;100827.63;;;8.00;44.48
34124;BME280;13153;52.316;21.166;2023-04-06T07:35:05;100826.06;;;8.03;44.30
34124;BME280;13153;52.316;21.166;2023-04-06T07:37:31;100816.75;;;7.90;44.49
34124;BME280;13153;52.316;21.166;2023-04-06T07:39:57;100826.28;;;7.88;45.19
34124;BME280;13153;52.316;21.166;2023-04-06T07:42:23;100814.69;;;7.83;44.24
34124;BME280;13153;52.316;21.166;2023-04-06T07:44:48;100818.75;;;7.96;44.43
34124;BME280;13153;52.316;21.166;2023-04-06T07:47:14;100820.88;;;8.05;43.83
34124;BME280;13153;52.316;21.166;2023-04-06T07:49:40;100818.69;;;7.94;43.76
34124;BME280;13153;52.316;21.166;2023-04-06T07:52:06;100821.16;;;7.91;44.36
34124;BME280;13153;52.316;21.166;2023-04-06T07:54:32;100814.00;;;7.87;44.35
34124;BME280;13153;52.316;21.166;2023-04-06T07:56:57;100818.97;;;7.81;45.54
34124;BME280;13153;52.316;21.166;2023-04-06T07:59:24;100814.41;;;7.97;45.26
34124;BME280;13153;52.316;21.166;2023-04-06T08:01:49;100819.50;;;7.93;46.28
34124;BME280;13153;52.316;21.166;2023-04-06T08:04:15;100806.03;;;8.05;46.30
34124;BME280;13153;52.316;21.166;2023-04-06T08:06:41;100811.34;;;8.07;47.06
34124;BME280;13153;52.316;21.166;2023-04-06T08:09:07;100803.44;;;8.05;46.52
34124;BME280;13153;52.316;21.166;2023-04-06T08:11:33;100799.56;;;8.18;47.30
34124;BME280;13153;52.316;21.166;2023-04-06T08:13:58;100810.13;;;8.19;47.00
34124;BME280;13153;52.316;21.166;2023-04-06T08:16:24;100802.34;;;8.21;47.14
34124;BME280;13153;52.316;21.166;2023-04-06T08:18:50;100802.19;;;8.18;46.43
34124;BME280;13153;52.316;21.166;2023-04-06T08:21:16;100810.63;;;8.11;46.62
34124;BME280;13153;52.316;21.166;2023-04-06T08:23:42;100814.69;;;8.03;47.47
34124;BME280;13153;52.316;21.166;2023-04-06T08:26:08;100811.19;;;7.63;47.87
34124;BME280;13153;52.316;21.166;2023-04-06T08:28:33;100812.47;;;7.54;48.28
34124;BME280;13153;52.316;21.166;2023-04-06T08:31:06;100803.94;;;7.58;49.53
34124;BME280;13153;52.316;21.166;2023-04-06T08:33:34;100802.78;;;7.71;49.78
34124;BME280;13153;52.316;21.166;2023-04-06T08:36:13;100803.88;;;7.76;49.84
34124;BME280;13153;52.316;21.166;2023-04-06T08:38:40;100805.59;;;7.75;50.05
34124;BME280;13153;52.316;21.166;2023-04-06T08:41:09;100804.63;;;7.73;49.78
34124;BME280;13153;52.316;21.166;2023-04-06T08:46:08;100793.19;;;7.90;49.57
34124;BME280;13153;52.316;21.166;2023-04-06T08:48:38;100800.75;;;8.04;49.35
34124;BME280;13153;52.316;21.166;2023-04-06T08:51:05;100794.19;;;8.15;47.85
34124;BME280;13153;52.316;21.166;2023-04-06T08:53:31;100790.88;;;8.19;48.62
34124;BME280;13153;52.316;21.166;2023-04-06T08:55:58;100791.22;;;8.26;48.43
34124;BME280;13153;52.316;21.166;2023-04-06T08:58:28;100793.00;;;8.27;47.90
34124;BME280;13153;52.316;21.166;2023-04-06T09:00:54;100786.59;;;8.21;48.82
34124;BME280;13153;52.316;21.166;2023-04-06T09:03:21;100787.56;;;8.23;49.38
34124;BME280;13153;52.316;21.166;2023-04-06T09:05:48;100789.56;;;8.08;48.00
34124;BME280;13153;52.316;21.166;2023-04-06T09:08:14;100781.16;;;7.95;48.54
34124;BME280;13153;52.316;21.166;2023-04-06T09:10:43;100764.84;;;7.82;48.72
34124;BME280;13153;52.316;21.166;2023-04-06T09:13:09;100763.91;;;8.01;48.65
34124;BME280;13153;52.316;21.166;2023-04-06T09:15:37;100759.31;;;8.16;47.97
34124;BME280;13153;52.316;21.166;2023-04-06T09:18:03;100755.84;;;8.17;47.53
34124;BME280;13153;52.316;21.166;2023-04-06T09:20:29;100764.41;;;8.13;47.83
34124;BME280;13153;52.316;21.166;2023-04-06T09:22:55;100766.34;;;7.96;49.04
34124;BME280;13153;52.316;21.166;2023-04-06T09:25:24;100755.81;;;7.94;49.38
34124;BME280;13153;52.316;21.166;2023-04-06T09:28:04;100750.50;;;7.93;49.57
34124;BME280;13153;52.316;21.166;2023-04-06T09:30:32;100748.56;;;7.89;49.93
34124;BME280;13153;52.316;21.166;2023-04-06T09:32:58;100742.31;;;7.85;51.29
34124;BME280;13153;52.316;21.166;2023-04-06T09:35:25;100743.53;;;7.93;51.52
34124;BME280;13153;52.316;21.166;2023-04-06T09:37:53;100736.00;;;8.01;52.09
34124;BME280;13153;52.316;21.166;2023-04-06T09:40:19;100740.53;;;8.05;51.65
34124;BME280;13153;52.316;21.166;2023-04-06T09:42:49;100737.19;;;8.09;51.81
34124;BME280;13153;52.316;21.166;2023-04-06T09:45:20;100738.22;;;8.13;51.76
34124;BME280;13153;52.316;21.166;2023-04-06T09:47:46;100727.84;;;8.16;51.22
34124;BME280;13153;52.316;21.166;2023-04-06T09:50:14;100727.22;;;8.21;50.85
34124;BME280;13153;52.316;21.166;2023-04-06T09:52:50;100724.41;;;8.17;51.18
34124;BME280;13153;52.316;21.166;2023-04-06T09:55:25;100729.50;;;8.14;51.56
34124;BME280;13153;52.316;21.166;2023-04-06T09:58:09;100725.44;;;8.00;51.31
34124;BME280;13153;52.316;21.166;2023-04-06T10:01:15;100714.56;;;7.90;50.95
34124;BME280;13153;52.316;21.166;2023-04-06T10:04:05;100718.16;;;7.92;52.06
34124;BME280;13153;52.316;21.166;2023-04-06T10:06:36;100705.88;;;7.91;51.83
34124;BME280;13153;52.316;21.166;2023-04-06T10:09:06;100702.69;;;7.99;52.12
34124;BME280;13153;52.316;21.166;2023-04-06T10:11:34;100710.94;;;8.08;52.76
34124;BME280;13153;52.316;21.166;2023-04-06T10:14:01;100702.41;;;8.13;52.39
34124;BME280;13153;52.316;21.166;2023-04-06T10:16:27;100703.19;;;8.11;52.37
34124;BME280;13153;52.316;21.166;2023-04-06T10:19:03;100705.03;;;8.13;52.71
34124;BME280;13153;52.316;21.166;2023-04-06T10:21:32;100701.38;;;8.10;52.06
34124;BME280;13153;52.316;21.166;2023-04-06T10:24:02;100708.91;;;8.01;52.36
34124;BME280;13153;52.316;21.166;2023-04-06T10:26:28;100710.75;;;7.82;52.34
34124;BME280;13153;52.316;21.166;2023-04-06T10:28:54;100706.56;;;7.67;52.76
34124;BME280;13153;52.316;21.166;2023-04-06T10:31:28;100703.31;;;7.72;53.09
34124;BME280;13153;52.316;21.166;2023-04-06T10:34:00;100700.06;;;7.78;53.49
34124;BME280;13153;52.316;21.166;2023-04-06T10:36:31;100697.00;;;7.88;53.31
34124;BME280;13153;52.316;21.166;2023-04-06T10:39:04;100696.31;;;7.92;53.65
34124;BME280;13153;52.316;21.166;2023-04-06T10:42:06;100698.03;;;7.91;53.08
34124;BME280;13153;52.316;21.166;2023-04-06T10:44:43;100699.25;;;8.00;53.59
34124;BME280;13153;52.316;21.166;2023-04-06T10:47:17;100686.00;;;7.97;53.04
34124;BME280;13153;52.316;21.166;2023-04-06T10:49:45;100686.84;;;7.95;53.66
34124;BME280;13153;52.316;21.166;2023-04-06T10:52:11;100683.47;;;7.98;53.00
34124;BME280;13153;52.316;21.166;2023-04-06T10:54:42;100673.03;;;8.00;53.90
34124;BME280;13153;52.316;21.166;2023-04-06T10:57:09;100679.81;;;7.94;53.74
34124;BME280;13153;52.316;21.166;2023-04-06T10:59:35;100681.59;;;7.95;53.80
34124;BME280;13153;52.316;21.166;2023-04-06T11:02:01;100681.59;;;7.95;53.45
34124;BME280;13153;52.316;21.166;2023-04-06T11:04:26;100684.22;;;7.95;54.13
34124;BME280;13153;52.316;21.166;2023-04-06T11:06:52;100681.59;;;7.95;54.01
34124;BME280;13153;52.316;21.166;2023-04-06T11:09:27;100686.16;;;8.00;54.54
34124;BME280;13153;52.316;21.166;2023-04-06T11:11:53;100682.00;;;8.05;54.62
34124;BME280;13153;52.316;21.166;2023-04-06T11:14:19;100680.91;;;8.00;54.43
34124;BME280;13153;52.316;21.166;2023-04-06T11:16:47;100676.63;;;8.02;53.88
34124;BME280;13153;52.316;21.166;2023-04-06T11:19:17;100669.91;;;8.08;53.67
34124;BME280;13153;52.316;21.166;2023-04-06T11:21:48;100667.31;;;8.10;53.49
34124;BME280;13153;52.316;21.166;2023-04-06T11:24:17;100667.28;;;8.08;53.50
34124;BME280;13153;52.316;21.166;2023-04-06T11:26:44;100665.31;;;8.03;52.87
34124;BME280;13153;52.316;21.166;2023-04-06T11:29:12;100658.22;;;8.00;53.23
34124;BME280;13153;52.316;21.166;2023-04-06T11:31:46;100660.13;;;8.04;52.34
34124;BME280;13153;52.316;21.166;2023-04-06T11:34:20;100662.81;;;8.06;52.94
34124;BME280;13153;52.316;21.166;2023-04-06T11:37:00;100666.06;;;8.00;52.84
34124;BME280;13153;52.316;21.166;2023-04-06T11:39:28;100660.19;;;8.06;52.31
34124;BME280;13153;52.316;21.166;2023-04-06T11:41:59;100652.03;;;7.98;52.45
34124;BME280;13153;52.316;21.166;2023-04-06T11:44:34;100648.25;;;7.91;53.10
34124;BME280;13153;52.316;21.166;2023-04-06T11:47:02;100640.50;;;7.94;52.60
34124;BME280;13153;52.316;21.166;2023-04-06T11:49:30;100633.50;;;7.93;52.49
34124;BME280;13153;52.316;21.166;2023-04-06T11:51:58;100642.31;;;7.95;52.68
34124;BME280;13153;52.316;21.166;2023-04-06T11:54:36;100641.66;;;8.01;52.17
34124;BME280;13153;52.316;21.166;2023-04-06T11:57:04;100635.53;;;8.01;51.95
34124;BME280;13153;52.316;21.166;2023-04-06T11:59:32;100626.22;;;8.09;51.82
34124;BME280;13153;52.316;21.166;2023-04-06T12:01:58;100614.97;;;8.11;52.15
34124;BME280;13153;52.316;21.166;2023-04-06T12:04:24;100619.38;;;8.12;52.21
34124;BME280;13153;52.316;21.166;2023-04-06T12:06:50;100608.78;;;8.09;52.43
34124;BME280;13153;52.316;21.166;2023-04-06T12:09:17;100606.28;;;8.12;52.01
34124;BME280;13153;52.316;21.166;2023-04-06T12:11:43;100606.41;;;8.15;52.17
34124;BME280;13153;52.316;21.166;2023-04-06T12:14:11;100595.06;;;8.16;51.98
34124;BME280;13153;52.316;21.166;2023-04-06T12:16:37;100600.19;;;8.13;51.44
34124;BME280;13153;52.316;21.166;2023-04-06T12:19:03;100595.91;;;8.15;51.68
34124;BME280;13153;52.316;21.166;2023-04-06T12:21:30;100592.28;;;8.12;51.65
34124;BME280;13153;52.316;21.166;2023-04-06T12:23:57;100595.56;;;8.06;52.38
34124;BME280;13153;52.316;21.166;2023-04-06T12:26:24;100599.19;;;8.10;52.24
34124;BME280;13153;52.316;21.166;2023-04-06T12:28:50;100593.91;;;8.08;52.30
34124;BME280;13153;52.316;21.166;2023-04-06T12:31:18;100600.63;;;8.02;51.57
34124;BME280;13153;52.316;21.166;2023-04-06T12:33:48;100601.47;;;8.01;52.41
34124;BME280;13153;52.316;21.166;2023-04-06T12:36:16;100604.16;;;8.02;52.47
34124;BME280;13153;52.316;21.166;2023-04-06T12:38:50;100592.72;;;8.00;52.31
34124;BME280;13153;52.316;21.166;2023-04-06T12:41:19;100575.50;;;8.07;53.06
34124;BME280;13153;52.316;21.166;2023-04-06T12:43:45;100579.06;;;8.09;52.57
34124;BME280;13153;52.316;21.166;2023-04-06T12:46:12;100580.84;;;8.10;52.77
34124;BME280;13153;52.316;21.166;2023-04-06T12:48:38;100577.19;;;8.05;52.44
34124;BME280;13153;52.316;21.166;2023-04-06T12:51:05;100581.66;;;8.09;52.64
34124;BME280;13153;52.316;21.166;2023-04-06T12:53:33;100579.06;;;8.09;52.99